메인 페이지
METAR-TAF:

METAR-TAF

공항 :

헤시피, 페르남부쿠, 브라질

위도: 08-08S, 경도: 034-55W, 고도: 19m

현재 날씨관측

예보는 53분 전, 02:00시(UTC)에 발표되었습니다.
남동10kt
온도 26°C
습도 74%
기압 1015 hPa
시정 10km 이상
고도 2500ft 상공 구름 보통
고도 6000ft 상공 구름 보통

METAR: SBRF 130200Z 14010KT 9999 SCT025 SCT060 26/21 Q1015

시각: 23:53 (02:53 UTC)

예보

예보는 4 시간 53분 전, 22:00시(UTC)에 발표되었습니다.
예보 대상 시간: 13일 00시부터 13일 24시까지 (UTC)
남동12kt
시정: 8000m
고도 2200ft 상공 구름 보통

TAF: SBRF 122200Z 1300/1324 14012KT 8000 SCT022 TN26/1307Z TX30/1314Z RMK PEA

4,000개 이상의 공항 관측 자료 및 예보 (METAR 및 TAF 보고).

지도상에서 검색 가능한 기상관측소가 노란 점과 빨간 점으로 표시되어 있습니다.

기상관측소 명을 보려면 표시 위로 마우스를 이동하세요.

날씨 관측과 예보를 보려면 클릭하세요.

지도 변경 : 확대하려면 엑스 표시가 있는 녹색 버튼, 축소하려면 빼기 표시가 있는 녹색 버튼, 다음 페이지의 지도를 보려면 녹색 화살표를 클릭하세요.


METAR-TAF: